createdAt,value
2022-10-05T00:01:25.050Z,98489.16
2022-10-05T00:03:53.097Z,98491.34
2022-10-05T00:06:19.586Z,98481.81
2022-10-05T00:08:46.151Z,98479.72
2022-10-05T00:11:16.683Z,98488.25
2022-10-05T00:13:43.267Z,98478.75
2022-10-05T00:16:16.184Z,98481.06
2022-10-05T00:18:45.135Z,98476.06
2022-10-05T00:21:22.992Z,98481.31
2022-10-05T00:23:49.841Z,98484.50
2022-10-05T00:26:18.663Z,98487.44
2022-10-05T00:28:45.120Z,98489.59
2022-10-05T00:31:19.959Z,98484.72
2022-10-05T00:33:46.930Z,98493.03
2022-10-05T00:36:13.666Z,98495.69
2022-10-05T00:38:40.738Z,98497.66
2022-10-05T00:41:16.617Z,98505.50
2022-10-05T00:43:51.350Z,98510.00
2022-10-05T00:46:26.163Z,98509.59
2022-10-05T00:49:05.450Z,98501.72
2022-10-05T00:51:35.846Z,98498.94
2022-10-05T00:54:08.466Z,98494.56
2022-10-05T00:57:01.210Z,98484.81
2022-10-05T00:59:33.923Z,98484.53
2022-10-05T01:02:06.841Z,98485.22
2022-10-05T01:04:51.827Z,98479.22
2022-10-05T01:07:32.028Z,98483.72
2022-10-05T01:10:09.543Z,98477.19
2022-10-05T01:12:55.034Z,98479.00
2022-10-05T01:15:31.422Z,98480.25
2022-10-05T01:18:00.725Z,98493.81
2022-10-05T01:20:50.541Z,98479.31
2022-10-05T01:23:26.123Z,98485.44
2022-10-05T01:25:52.578Z,98480.09
2022-10-05T01:28:31.364Z,98478.53
2022-10-05T01:30:57.873Z,98481.88
2022-10-05T01:33:43.086Z,98489.50
2022-10-05T01:36:27.295Z,98481.97
2022-10-05T01:38:59.756Z,98485.00
2022-10-05T01:41:48.769Z,98489.19
2022-10-05T01:44:20.983Z,98493.31
2022-10-05T01:47:17.014Z,98497.03
2022-10-05T01:50:00.041Z,98489.84
2022-10-05T01:52:29.474Z,98493.34
2022-10-05T01:55:12.966Z,98495.31
2022-10-05T01:57:49.002Z,98493.56
2022-10-05T02:00:17.951Z,98486.16
2022-10-05T02:03:02.486Z,98491.34
2022-10-05T02:05:44.994Z,98491.31
2022-10-05T02:08:17.706Z,98493.25
2022-10-05T02:10:44.584Z,98489.19
2022-10-05T02:13:29.502Z,98493.31
2022-10-05T02:16:01.660Z,98488.69
2022-10-05T02:18:30.386Z,98486.84
2022-10-05T02:21:00.784Z,98482.03
2022-10-05T02:23:32.754Z,98477.69
2022-10-05T02:26:00.886Z,98466.75
2022-10-05T02:28:33.723Z,98475.25
2022-10-05T02:31:11.809Z,98470.88
2022-10-05T02:33:38.666Z,98471.19
2022-10-05T02:36:14.649Z,98465.66
2022-10-05T02:38:47.997Z,98473.44
2022-10-05T02:41:33.641Z,98474.84
2022-10-05T02:44:09.236Z,98468.06
2022-10-05T02:46:41.708Z,98458.31
2022-10-05T02:49:09.302Z,98459.56
2022-10-05T02:51:45.069Z,98460.28
2022-10-05T02:54:29.980Z,98456.75
2022-10-05T02:56:59.459Z,98457.25
2022-10-05T02:59:38.004Z,98453.34
2022-10-05T03:02:15.560Z,98453.91
2022-10-05T03:04:58.754Z,98451.91
2022-10-05T03:07:34.984Z,98450.44
2022-10-05T03:10:06.280Z,98447.25
2022-10-05T03:12:39.888Z,98441.59
2022-10-05T03:15:06.794Z,98444.78
2022-10-05T03:17:45.916Z,98443.56
2022-10-05T03:20:24.099Z,98436.38
2022-10-05T03:22:54.470Z,98439.00
2022-10-05T03:25:31.635Z,98432.44
2022-10-05T03:28:03.491Z,98430.13
2022-10-05T03:30:35.343Z,98423.78
2022-10-05T03:33:17.387Z,98436.22
2022-10-05T03:35:53.321Z,98430.06
2022-10-05T03:38:31.949Z,98427.28
2022-10-05T03:40:58.480Z,98431.63
2022-10-05T03:43:29.326Z,98424.75
2022-10-05T03:45:58.651Z,98432.88
2022-10-05T03:48:48.463Z,98423.34
2022-10-05T03:51:18.106Z,98413.94
2022-10-05T03:53:48.970Z,98413.22
2022-10-05T03:56:19.677Z,98425.47
2022-10-05T03:58:53.489Z,98426.56
2022-10-05T04:01:22.643Z,98424.44
2022-10-05T04:03:57.154Z,98420.91
2022-10-05T04:06:44.283Z,98425.22
2022-10-05T04:09:15.260Z,98425.91
2022-10-05T04:11:50.921Z,98437.06
2022-10-05T04:14:21.606Z,98428.16
2022-10-05T04:16:52.410Z,98423.00
2022-10-05T04:19:24.565Z,98419.94
2022-10-05T04:21:55.218Z,98420.69
2022-10-05T04:24:26.198Z,98421.91
2022-10-05T04:26:58.779Z,98422.16
2022-10-05T04:29:33.725Z,98418.69
2022-10-05T04:32:05.955Z,98418.69
2022-10-05T04:34:38.719Z,98421.66
2022-10-05T04:37:08.589Z,98430.28
2022-10-05T04:39:45.613Z,98428.16
2022-10-05T04:42:30.966Z,98429.59
2022-10-05T04:45:00.819Z,98427.00
2022-10-05T04:47:35.329Z,98428.78
2022-10-05T04:50:20.711Z,98429.19
2022-10-05T04:53:00.171Z,98431.84
2022-10-05T04:55:45.297Z,98432.69
2022-10-05T04:58:24.591Z,98429.84
2022-10-05T05:01:03.421Z,98430.81
2022-10-05T05:03:38.942Z,98436.47
2022-10-05T05:06:17.821Z,98436.25
2022-10-05T05:08:51.358Z,98433.72
2022-10-05T05:11:40.762Z,98446.53
2022-10-05T05:14:13.453Z,98446.06
2022-10-05T05:16:41.454Z,98446.53
2022-10-05T05:19:30.530Z,98439.50
2022-10-05T05:22:07.378Z,98441.75
2022-10-05T05:24:43.718Z,98447.63
2022-10-05T05:27:29.243Z,98460.25
2022-10-05T05:30:04.338Z,98460.03
2022-10-05T05:32:46.648Z,98464.97
2022-10-05T05:35:24.999Z,98455.28
2022-10-05T05:38:10.916Z,98464.00
2022-10-05T05:40:44.509Z,98460.47
2022-10-05T05:43:29.603Z,98456.88
2022-10-05T05:46:01.055Z,98452.22
2022-10-05T05:48:29.152Z,98454.81
2022-10-05T05:51:14.981Z,98456.25
2022-10-05T05:53:46.143Z,98458.22
2022-10-05T05:56:14.277Z,98463.22
2022-10-05T05:58:54.631Z,98454.81
2022-10-05T06:01:34.217Z,98467.84
2022-10-05T06:04:24.934Z,98466.41
2022-10-05T06:06:53.205Z,98475.94
2022-10-05T06:09:26.720Z,98480.34
2022-10-05T06:12:16.732Z,98483.19
2022-10-05T06:14:46.023Z,98472.66
2022-10-05T06:17:19.221Z,98477.63
2022-10-05T06:19:46.687Z,98480.78
2022-10-05T06:22:19.838Z,98478.69
2022-10-05T06:24:58.643Z,98477.78
2022-10-05T06:27:39.249Z,98469.97
2022-10-05T06:30:15.159Z,98468.13
2022-10-05T06:32:50.781Z,98473.09
2022-10-05T06:35:33.179Z,98468.25
2022-10-05T06:38:05.822Z,98475.16
2022-10-05T06:40:51.119Z,98480.97
2022-10-05T06:43:24.793Z,98479.97
2022-10-05T06:46:32.688Z,98474.28
2022-10-05T06:49:45.566Z,98481.19
2022-10-05T06:52:38.123Z,98485.19
2022-10-05T06:55:14.336Z,98483.38
2022-10-05T06:58:00.189Z,98477.38
2022-10-05T07:00:39.071Z,98477.13
2022-10-05T07:03:25.872Z,98485.97
2022-10-05T07:05:59.041Z,98482.59
2022-10-05T07:08:46.822Z,98490.59
2022-10-05T07:11:23.118Z,98500.34
2022-10-05T07:14:13.229Z,98493.31
2022-10-05T07:16:52.603Z,98498.75
2022-10-05T07:19:29.212Z,98503.13
2022-10-05T07:21:58.799Z,98500.25
2022-10-05T07:24:30.567Z,98503.97
2022-10-05T07:27:13.174Z,98509.63
2022-10-05T07:29:52.516Z,98512.03
2022-10-05T07:32:38.007Z,98505.66
2022-10-05T07:35:04.868Z,98505.69
2022-10-05T07:37:53.242Z,98492.06
2022-10-05T07:40:32.651Z,98491.38
2022-10-05T07:43:03.290Z,98498.47
2022-10-05T07:45:44.446Z,98496.88
2022-10-05T07:48:20.633Z,98495.56
2022-10-05T07:50:58.679Z,98503.03
2022-10-05T07:53:35.044Z,98505.88
2022-10-05T07:56:10.355Z,98507.41
2022-10-05T07:58:43.298Z,98499.47
2022-10-05T08:01:13.045Z,98501.22
2022-10-05T08:03:49.437Z,98502.56
2022-10-05T08:06:28.906Z,98502.97
2022-10-05T08:08:57.336Z,98496.53
2022-10-05T08:11:44.333Z,98489.88
2022-10-05T08:14:20.371Z,98490.09
2022-10-05T08:16:48.478Z,98486.69
2022-10-05T08:19:15.234Z,98487.28
2022-10-05T08:21:45.231Z,98492.38
2022-10-05T08:24:11.951Z,98497.13
2022-10-05T08:26:49.866Z,98493.66
2022-10-05T08:29:42.362Z,98491.06
2022-10-05T08:32:14.944Z,98484.09
2022-10-05T08:34:47.410Z,98485.75
2022-10-05T08:37:18.940Z,98486.81
2022-10-05T08:40:03.798Z,98487.50
2022-10-05T08:42:39.354Z,98493.75
2022-10-05T08:45:26.835Z,98485.38
2022-10-05T08:48:01.563Z,98487.75
2022-10-05T08:50:43.020Z,98492.63
2022-10-05T08:53:37.955Z,98489.91
2022-10-05T08:56:27.797Z,98496.88
2022-10-05T08:59:24.254Z,98484.78
2022-10-05T09:02:08.314Z,98495.47
2022-10-05T09:04:53.531Z,98497.97
2022-10-05T09:07:37.939Z,98490.09
2022-10-05T09:10:13.503Z,98485.28
2022-10-05T09:12:46.049Z,98486.31
2022-10-05T09:15:31.260Z,98486.25
2022-10-05T09:18:07.215Z,98491.19
2022-10-05T09:20:48.288Z,98487.16
2022-10-05T09:23:27.090Z,98481.59
2022-10-05T09:25:56.643Z,98471.03
2022-10-05T09:28:25.109Z,98481.16
2022-10-05T09:30:58.889Z,98472.66
2022-10-05T09:33:44.195Z,98482.84
2022-10-05T09:36:30.520Z,98481.31
2022-10-05T09:39:16.170Z,98476.66
2022-10-05T09:41:46.463Z,98470.75
2022-10-05T09:44:13.311Z,98475.19
2022-10-05T09:46:45.927Z,98470.47
2022-10-05T09:49:18.126Z,98471.88
2022-10-05T09:52:03.661Z,98465.22
2022-10-05T09:54:48.850Z,98476.38
2022-10-05T09:57:15.259Z,98468.78
2022-10-05T09:59:42.210Z,98469.66
2022-10-05T10:02:18.428Z,98470.13
2022-10-05T10:05:05.683Z,98466.44
2022-10-05T10:07:50.951Z,98474.19
2022-10-05T10:10:36.257Z,98469.47
2022-10-05T10:13:14.799Z,98460.59
2022-10-05T10:16:03.573Z,98460.47
2022-10-05T10:18:53.163Z,98465.41
2022-10-05T10:21:34.946Z,98466.38
2022-10-05T10:24:04.460Z,98461.06
2022-10-05T10:26:44.787Z,98457.31
2022-10-05T10:29:30.402Z,98458.13
2022-10-05T10:31:59.910Z,98449.84
2022-10-05T10:34:45.351Z,98455.91
2022-10-05T10:37:30.782Z,98447.44
2022-10-05T10:40:15.858Z,98448.38
2022-10-05T10:43:05.546Z,98453.09
2022-10-05T10:45:45.398Z,98452.16
2022-10-05T10:48:11.866Z,98456.66
2022-10-05T10:50:52.528Z,98447.06
2022-10-05T10:53:37.334Z,98445.25
2022-10-05T10:56:10.142Z,98451.28
2022-10-05T10:58:59.669Z,98449.94
2022-10-05T11:01:26.135Z,98444.56
2022-10-05T11:04:11.415Z,98448.81
2022-10-05T11:06:56.653Z,98444.00
2022-10-05T11:09:54.743Z,98441.38
2022-10-05T11:12:59.575Z,98448.16
2022-10-05T11:15:28.600Z,98449.59
2022-10-05T11:17:58.190Z,98443.75
2022-10-05T11:20:33.961Z,98437.16
2022-10-05T11:23:03.347Z,98441.38
2022-10-05T11:25:38.302Z,98437.88
2022-10-05T11:28:19.691Z,98436.56
2022-10-05T11:31:04.994Z,98425.31
2022-10-05T11:33:34.419Z,98427.16
2022-10-05T11:36:21.336Z,98425.03
2022-10-05T11:39:13.791Z,98413.22
2022-10-05T11:41:58.586Z,98408.66
2022-10-05T11:44:45.166Z,98404.00
2022-10-05T11:47:11.610Z,98411.72
2022-10-05T11:49:50.010Z,98404.69
2022-10-05T11:52:16.833Z,98393.34
2022-10-05T11:55:11.289Z,98400.59
2022-10-05T11:57:43.117Z,98398.78
2022-10-05T12:00:12.845Z,98405.69
2022-10-05T12:02:45.663Z,98399.94
2022-10-05T12:05:21.166Z,98405.72
2022-10-05T12:07:50.330Z,98400.16
2022-10-05T12:10:21.636Z,98403.56
2022-10-05T12:13:04.578Z,98415.75
2022-10-05T12:15:37.263Z,98403.16
2022-10-05T12:18:13.490Z,98396.88
2022-10-05T12:20:54.145Z,98392.19
2022-10-05T12:23:28.111Z,98390.09
2022-10-05T12:25:57.610Z,98398.72
2022-10-05T12:28:29.951Z,98390.91
2022-10-05T12:31:02.609Z,98389.22
2022-10-05T12:33:38.205Z,98400.91
2022-10-05T12:36:14.134Z,98394.13
2022-10-05T12:38:40.603Z,98394.13
2022-10-05T12:41:14.307Z,98402.16
2022-10-05T12:43:47.087Z,98384.75
2022-10-05T12:46:20.195Z,98387.38
2022-10-05T12:48:56.018Z,98387.53
2022-10-05T12:51:31.791Z,98395.09
2022-10-05T12:53:58.196Z,98396.41
2022-10-05T12:56:44.742Z,98375.94
2022-10-05T12:59:18.031Z,98371.09
2022-10-05T13:01:59.771Z,98371.72
2022-10-05T13:04:33.001Z,98376.94
2022-10-05T13:07:08.081Z,98377.00
2022-10-05T13:09:37.627Z,98376.34
2022-10-05T13:12:12.145Z,98373.84
2022-10-05T13:14:58.821Z,98378.53
2022-10-05T13:17:39.264Z,98368.28
2022-10-05T13:20:37.951Z,98373.13
2022-10-05T13:23:19.161Z,98370.69
2022-10-05T13:26:08.813Z,98372.56
2022-10-05T13:28:41.470Z,98379.13
2022-10-05T13:31:24.648Z,98374.88
2022-10-05T13:33:58.389Z,98370.44
2022-10-05T13:36:31.391Z,98368.78
2022-10-05T13:39:03.694Z,98372.81
2022-10-05T13:41:48.542Z,98373.59
2022-10-05T13:44:24.065Z,98364.47
2022-10-05T13:47:01.084Z,98375.53
2022-10-05T13:52:20.411Z,98376.41
2022-10-05T13:55:09.857Z,98369.00
2022-10-05T13:57:58.780Z,98375.38
2022-10-05T14:00:27.001Z,98378.34
2022-10-05T14:02:54.973Z,98370.81
2022-10-05T14:05:21.490Z,98361.63
2022-10-05T14:07:50.183Z,98368.13
2022-10-05T14:10:29.258Z,98370.66
2022-10-05T14:12:55.790Z,98359.59
2022-10-05T14:15:28.061Z,98359.41
2022-10-05T14:17:54.720Z,98366.13
2022-10-05T14:20:28.822Z,98361.09
2022-10-05T14:23:00.390Z,98358.59
2022-10-05T14:25:27.933Z,98360.56
2022-10-05T14:27:57.147Z,98356.88
2022-10-05T14:30:25.669Z,98357.78
2022-10-05T14:32:55.781Z,98360.22
2022-10-05T14:35:25.329Z,98361.09
2022-10-05T14:38:00.404Z,98359.13
2022-10-05T14:40:28.858Z,98354.41
2022-10-05T14:42:56.256Z,98353.41
2022-10-05T14:45:25.049Z,98346.84
2022-10-05T14:47:53.359Z,98338.41
2022-10-05T14:50:29.663Z,98341.03
2022-10-05T14:53:11.284Z,98341.84
2022-10-05T14:55:48.542Z,98340.97
2022-10-05T14:58:15.169Z,98341.41
2022-10-05T15:00:51.576Z,98346.13
2022-10-05T15:03:27.300Z,98341.72
2022-10-05T15:05:55.686Z,98337.47
2022-10-05T15:08:24.860Z,98333.94
2022-10-05T15:10:56.594Z,98337.19
2022-10-05T15:13:30.570Z,98331.28
2022-10-05T15:16:00.694Z,98329.69
2022-10-05T15:18:39.827Z,98331.22
2022-10-05T15:21:09.957Z,98331.31
2022-10-05T15:23:47.424Z,98334.13
2022-10-05T15:26:19.735Z,98325.44
2022-10-05T15:28:49.201Z,98333.78
2022-10-05T15:31:37.651Z,98330.72
2022-10-05T15:34:09.343Z,98333.69
2022-10-05T15:36:42.944Z,98334.75
2022-10-05T15:39:26.932Z,98327.41
2022-10-05T15:42:00.306Z,98342.88
2022-10-05T15:44:29.753Z,98327.28
2022-10-05T15:46:58.643Z,98323.97
2022-10-05T15:49:43.953Z,98328.00
2022-10-05T15:52:28.749Z,98326.63
2022-10-05T15:54:55.162Z,98330.56
2022-10-05T15:57:21.545Z,98331.78
2022-10-05T15:59:51.030Z,98323.38
2022-10-05T16:02:26.003Z,98319.56
2022-10-05T16:05:03.820Z,98319.06
2022-10-05T16:07:59.280Z,98331.41
2022-10-05T16:10:26.202Z,98317.91
2022-10-05T16:12:55.542Z,98323.50
2022-10-05T16:15:29.591Z,98317.41
2022-10-05T16:17:55.976Z,98317.41
2022-10-05T16:20:22.411Z,98328.31
2022-10-05T16:23:03.802Z,98328.97
2022-10-05T16:25:49.068Z,98328.78
2022-10-05T16:28:15.529Z,98325.88
2022-10-05T16:30:51.070Z,98326.25
2022-10-05T16:33:23.672Z,98327.59
2022-10-05T16:36:02.907Z,98329.66
2022-10-05T16:38:29.381Z,98335.59
2022-10-05T16:41:13.792Z,98335.06
2022-10-05T16:43:44.839Z,98326.78
2022-10-05T16:46:27.762Z,98335.47
2022-10-05T16:48:54.507Z,98340.22
2022-10-05T16:51:31.824Z,98338.19
2022-10-05T16:54:18.061Z,98336.31
2022-10-05T16:56:48.091Z,98342.25
2022-10-05T16:59:28.578Z,98332.09
2022-10-05T17:02:15.315Z,98342.75
2022-10-05T17:05:01.643Z,98342.94
2022-10-05T17:07:37.241Z,98335.78
2022-10-05T17:10:11.604Z,98330.53
2022-10-05T17:12:38.156Z,98330.69
2022-10-05T17:15:14.888Z,98335.03
2022-10-05T17:18:19.937Z,98329.78
2022-10-05T17:21:07.837Z,98333.03
2022-10-05T17:23:34.336Z,98338.09
2022-10-05T17:26:10.216Z,98332.94
2022-10-05T17:28:38.859Z,98345.19
2022-10-05T17:31:08.493Z,98336.50
2022-10-05T17:33:55.189Z,98341.53
2022-10-05T17:36:21.608Z,98340.72
2022-10-05T17:39:12.263Z,98345.50
2022-10-05T17:41:38.834Z,98339.69
2022-10-05T17:44:16.195Z,98334.81
2022-10-05T17:46:46.033Z,98346.94
2022-10-05T17:49:15.519Z,98342.63
2022-10-05T17:52:00.659Z,98345.19
2022-10-05T17:54:49.806Z,98339.66
2022-10-05T17:57:19.849Z,98334.53
2022-10-05T17:59:56.815Z,98335.84
2022-10-05T18:02:36.360Z,98336.28
2022-10-05T18:05:04.016Z,98345.56
2022-10-05T18:07:31.592Z,98333.41
2022-10-05T18:09:59.482Z,98337.13
2022-10-05T18:12:40.167Z,98339.53
2022-10-05T18:15:06.574Z,98341.56
2022-10-05T18:17:36.034Z,98334.56
2022-10-05T18:20:13.192Z,98341.50
2022-10-05T18:22:39.717Z,98336.41
2022-10-05T18:25:10.133Z,98332.78
2022-10-05T18:28:03.982Z,98338.44
2022-10-05T18:30:32.611Z,98341.19
2022-10-05T18:33:08.211Z,98340.56
2022-10-05T18:35:46.994Z,98347.00
2022-10-05T18:38:13.581Z,98350.34
2022-10-05T18:40:46.038Z,98347.00
2022-10-05T18:43:29.039Z,98345.03
2022-10-05T18:46:05.189Z,98353.50
2022-10-05T18:48:35.618Z,98354.91
2022-10-05T18:51:08.210Z,98349.47
2022-10-05T18:53:41.101Z,98352.78
2022-10-05T18:56:30.076Z,98350.72
2022-10-05T18:59:14.824Z,98357.44
2022-10-05T19:01:50.627Z,98359.50
2022-10-05T19:04:29.322Z,98352.66
2022-10-05T19:06:58.786Z,98353.38
2022-10-05T19:09:25.176Z,98357.72
2022-10-05T19:12:01.251Z,98349.47
2022-10-05T19:14:27.702Z,98353.09
2022-10-05T19:17:03.298Z,98358.44
2022-10-05T19:19:38.561Z,98356.34
2022-10-05T19:22:05.007Z,98362.16
2022-10-05T19:24:41.659Z,98364.72
2022-10-05T19:27:13.685Z,98363.88
2022-10-05T19:29:49.229Z,98365.19
2022-10-05T19:32:15.680Z,98363.19
2022-10-05T19:34:42.247Z,98376.09
2022-10-05T19:37:15.599Z,98374.63
2022-10-05T19:39:47.995Z,98370.06
2022-10-05T19:42:17.579Z,98373.81
2022-10-05T19:44:47.740Z,98363.47
2022-10-05T19:47:32.281Z,98361.09
2022-10-05T19:49:59.626Z,98368.34
2022-10-05T19:52:40.665Z,98367.66
2022-10-05T19:55:13.251Z,98370.13
2022-10-05T19:57:46.134Z,98378.25
2022-10-05T20:00:19.805Z,98375.84
2022-10-05T20:02:46.725Z,98375.81
2022-10-05T20:05:13.691Z,98384.78
2022-10-05T20:07:41.008Z,98380.69
2022-10-05T20:10:29.225Z,98385.09
2022-10-05T20:12:59.774Z,98386.81
2022-10-05T20:15:46.075Z,98384.91
2022-10-05T20:18:50.172Z,98391.03
2022-10-05T20:21:37.081Z,98386.41
2022-10-05T20:24:11.348Z,98394.66
2022-10-05T20:27:01.096Z,98400.41
2022-10-05T20:29:37.446Z,98398.09
2022-10-05T20:32:08.112Z,98397.50
2022-10-05T20:34:35.257Z,98395.50
2022-10-05T20:37:01.657Z,98402.44
2022-10-05T20:39:28.110Z,98400.13
2022-10-05T20:41:54.574Z,98402.69
2022-10-05T20:44:21.021Z,98404.97
2022-10-05T20:46:48.166Z,98402.59
2022-10-05T20:49:14.663Z,98404.34
2022-10-05T20:51:41.178Z,98413.31
2022-10-05T20:54:07.909Z,98409.63
2022-10-05T20:56:34.402Z,98413.84
2022-10-05T20:59:00.879Z,98413.84
2022-10-05T21:01:28.877Z,98415.84
2022-10-05T21:03:55.758Z,98418.53
2022-10-05T21:06:22.305Z,98426.69
2022-10-05T21:08:50.857Z,98417.28
2022-10-05T21:11:17.337Z,98417.31
2022-10-05T21:13:47.095Z,98428.41
2022-10-05T21:16:18.513Z,98423.84
2022-10-05T21:18:46.900Z,98418.19
2022-10-05T21:21:14.802Z,98419.06
2022-10-05T21:23:41.243Z,98419.22
2022-10-05T21:26:08.007Z,98414.78
2022-10-05T21:28:34.815Z,98413.66
2022-10-05T21:31:01.404Z,98418.22
2022-10-05T21:33:28.167Z,98417.38
2022-10-05T21:35:54.855Z,98421.66
2022-10-05T21:38:21.311Z,98420.81
2022-10-05T21:40:47.746Z,98413.13
2022-10-05T21:43:14.469Z,98415.53
2022-10-05T21:45:41.608Z,98418.53
2022-10-05T21:48:08.252Z,98420.22
2022-10-05T21:50:35.105Z,98417.97
2022-10-05T21:53:02.973Z,98411.41
2022-10-05T21:55:29.507Z,98411.13
2022-10-05T21:57:57.302Z,98422.22
2022-10-05T22:00:23.766Z,98412.00
2022-10-05T22:02:50.280Z,98420.81
2022-10-05T22:05:16.845Z,98413.69
2022-10-05T22:07:43.339Z,98410.53
2022-10-05T22:10:09.843Z,98417.66
2022-10-05T22:12:36.558Z,98412.25
2022-10-05T22:15:05.233Z,98419.31
2022-10-05T22:17:31.962Z,98421.03
2022-10-05T22:19:58.981Z,98423.72
2022-10-05T22:22:26.473Z,98417.34
2022-10-05T22:24:53.301Z,98427.25
2022-10-05T22:27:20.786Z,98413.63
2022-10-05T22:29:47.359Z,98418.56
2022-10-05T22:32:13.762Z,98415.31
2022-10-05T22:34:40.174Z,98422.94
2022-10-05T22:37:06.920Z,98418.31
2022-10-05T22:39:33.374Z,98415.00
2022-10-05T22:41:59.774Z,98420.28
2022-10-05T22:44:26.194Z,98426.47
2022-10-05T22:46:52.622Z,98421.94
2022-10-05T22:49:19.461Z,98423.91
2022-10-05T22:51:45.971Z,98423.41
2022-10-05T22:54:12.382Z,98429.31
2022-10-05T22:56:38.790Z,98425.25
2022-10-05T22:59:05.250Z,98429.16
2022-10-05T23:01:31.723Z,98430.88
2022-10-05T23:03:58.240Z,98433.66
2022-10-05T23:06:27.753Z,98434.28
2022-10-05T23:08:54.755Z,98430.97
2022-10-05T23:11:23.601Z,98427.16
2022-10-05T23:13:52.183Z,98432.25
2022-10-05T23:16:20.190Z,98433.63
2022-10-05T23:18:51.114Z,98432.19
2022-10-05T23:21:18.207Z,98427.97
2022-10-05T23:23:49.029Z,98443.56
2022-10-05T23:26:16.079Z,98446.72
2022-10-05T23:28:46.559Z,98449.00
2022-10-05T23:31:14.853Z,98440.50
2022-10-05T23:33:41.313Z,98454.50
2022-10-05T23:36:09.029Z,98444.56
2022-10-05T23:38:36.068Z,98452.63
2022-10-05T23:41:02.814Z,98441.50
2022-10-05T23:43:29.583Z,98453.38
2022-10-05T23:45:56.345Z,98444.66
2022-10-05T23:48:22.887Z,98451.47
2022-10-05T23:50:49.887Z,98449.50
2022-10-05T23:53:16.767Z,98461.53
2022-10-05T23:55:43.205Z,98454.03
2022-10-05T23:58:10.034Z,98460.53
